sensor_id;sensor_type;location;lat;lon;timestamp;P1;durP1;ratioP1;P2;durP2;ratioP2
68108;SDS011;54893;49.864;19.084;2023-01-29T00:03:05;29.40;;;8.60;;
68108;SDS011;54893;49.864;19.084;2023-01-29T00:08:06;30.50;;;10.87;;
68108;SDS011;54893;49.864;19.084;2023-01-29T00:13:06;24.33;;;8.73;;
68108;SDS011;54893;49.864;19.084;2023-01-29T00:18:06;34.43;;;13.77;;
68108;SDS011;54893;49.864;19.084;2023-01-29T00:23:07;29.98;;;12.98;;
68108;SDS011;54893;49.864;19.084;2023-01-29T00:28:08;18.60;;;7.13;;
68108;SDS011;54893;49.864;19.084;2023-01-29T00:33:08;29.87;;;9.27;;
68108;SDS011;54893;49.864;19.084;2023-01-29T00:38:10;27.15;;;8.88;;
68108;SDS011;54893;49.864;19.084;2023-01-29T00:43:11;31.27;;;11.73;;
68108;SDS011;54893;49.864;19.084;2023-01-29T00:48:30;37.93;;;17.17;;
68108;SDS011;54893;49.864;19.084;2023-01-29T00:53:30;34.87;;;11.73;;
68108;SDS011;54893;49.864;19.084;2023-01-29T00:58:30;35.23;;;13.57;;
68108;SDS011;54893;49.864;19.084;2023-01-29T01:03:33;28.42;;;13.07;;
68108;SDS011;54893;49.864;19.084;2023-01-29T01:08:41;28.30;;;9.93;;
68108;SDS011;54893;49.864;19.084;2023-01-29T01:14:00;34.92;;;14.80;;
68108;SDS011;54893;49.864;19.084;2023-01-29T01:19:02;34.95;;;13.68;;
68108;SDS011;54893;49.864;19.084;2023-01-29T01:24:03;21.88;;;8.20;;
68108;SDS011;54893;49.864;19.084;2023-01-29T01:29:04;18.23;;;7.03;;
68108;SDS011;54893;49.864;19.084;2023-01-29T01:34:05;20.53;;;7.20;;
68108;SDS011;54893;49.864;19.084;2023-01-29T01:39:05;14.83;;;5.40;;
68108;SDS011;54893;49.864;19.084;2023-01-29T01:44:06;32.27;;;12.37;;
68108;SDS011;54893;49.864;19.084;2023-01-29T01:54:13;28.02;;;12.25;;
68108;SDS011;54893;49.864;19.084;2023-01-29T01:59:27;28.53;;;11.50;;
68108;SDS011;54893;49.864;19.084;2023-01-29T02:04:27;20.83;;;7.37;;
68108;SDS011;54893;49.864;19.084;2023-01-29T02:14:56;21.50;;;8.17;;
68108;SDS011;54893;49.864;19.084;2023-01-29T02:20:02;19.00;;;6.40;;
68108;SDS011;54893;49.864;19.084;2023-01-29T02:30:35;25.00;;;10.77;;
68108;SDS011;54893;49.864;19.084;2023-01-29T02:35:41;19.08;;;7.72;;
68108;SDS011;54893;49.864;19.084;2023-01-29T02:51:16;19.40;;;8.27;;
68108;SDS011;54893;49.864;19.084;2023-01-29T02:56:22;14.57;;;4.82;;
68108;SDS011;54893;49.864;19.084;2023-01-29T03:01:32;19.30;;;7.70;;
68108;SDS011;54893;49.864;19.084;2023-01-29T03:06:42;33.60;;;11.90;;
68108;SDS011;54893;49.864;19.084;2023-01-29T03:11:50;43.20;;;17.50;;
68108;SDS011;54893;49.864;19.084;2023-01-29T03:16:53;42.08;;;16.70;;
68108;SDS011;54893;49.864;19.084;2023-01-29T03:21:54;40.80;;;15.20;;
68108;SDS011;54893;49.864;19.084;2023-01-29T03:27:00;43.60;;;21.52;;
68108;SDS011;54893;49.864;19.084;2023-01-29T03:32:21;32.25;;;13.32;;
68108;SDS011;54893;49.864;19.084;2023-01-29T03:37:41;35.05;;;14.70;;
68108;SDS011;54893;49.864;19.084;2023-01-29T04:03:34;12.25;;;5.85;;
68108;SDS011;54893;49.864;19.084;2023-01-29T04:14:11;17.30;;;7.07;;
68108;SDS011;54893;49.864;19.084;2023-01-29T04:19:13;12.57;;;5.68;;
68108;SDS011;54893;49.864;19.084;2023-01-29T04:24:13;7.57;;;3.47;;
68108;SDS011;54893;49.864;19.084;2023-01-29T04:34:34;5.85;;;2.42;;
68108;SDS011;54893;49.864;19.084;2023-01-29T04:39:55;7.82;;;2.70;;
68108;SDS011;54893;49.864;19.084;2023-01-29T04:45:09;6.15;;;2.22;;
68108;SDS011;54893;49.864;19.084;2023-01-29T04:55:48;12.60;;;4.35;;
68108;SDS011;54893;49.864;19.084;2023-01-29T05:00:54;13.38;;;5.43;;
68108;SDS011;54893;49.864;19.084;2023-01-29T05:05:56;10.27;;;4.43;;
68108;SDS011;54893;49.864;19.084;2023-01-29T05:10:58;12.75;;;4.13;;
68108;SDS011;54893;49.864;19.084;2023-01-29T05:16:00;12.60;;;5.70;;
68108;SDS011;54893;49.864;19.084;2023-01-29T05:21:07;12.03;;;4.47;;
68108;SDS011;54893;49.864;19.084;2023-01-29T05:26:08;9.85;;;3.90;;
68108;SDS011;54893;49.864;19.084;2023-01-29T05:31:08;9.73;;;3.97;;
68108;SDS011;54893;49.864;19.084;2023-01-29T05:36:08;10.98;;;3.58;;
68108;SDS011;54893;49.864;19.084;2023-01-29T05:41:09;7.67;;;3.70;;
68108;SDS011;54893;49.864;19.084;2023-01-29T05:46:09;7.40;;;3.90;;
68108;SDS011;54893;49.864;19.084;2023-01-29T05:51:09;10.40;;;4.90;;
68108;SDS011;54893;49.864;19.084;2023-01-29T05:56:10;9.83;;;4.20;;
68108;SDS011;54893;49.864;19.084;2023-01-29T06:01:11;14.23;;;5.90;;
68108;SDS011;54893;49.864;19.084;2023-01-29T06:06:14;8.63;;;3.27;;
68108;SDS011;54893;49.864;19.084;2023-01-29T06:11:15;29.08;;;9.57;;
68108;SDS011;54893;49.864;19.084;2023-01-29T06:16:17;24.17;;;7.50;;
68108;SDS011;54893;49.864;19.084;2023-01-29T06:21:17;28.43;;;7.20;;
68108;SDS011;54893;49.864;19.084;2023-01-29T06:26:18;10.93;;;3.93;;
68108;SDS011;54893;49.864;19.084;2023-01-29T06:31:18;7.47;;;2.88;;
68108;SDS011;54893;49.864;19.084;2023-01-29T06:36:18;7.73;;;2.87;;
68108;SDS011;54893;49.864;19.084;2023-01-29T06:41:19;9.80;;;3.80;;
68108;SDS011;54893;49.864;19.084;2023-01-29T06:46:24;10.85;;;4.68;;
68108;SDS011;54893;49.864;19.084;2023-01-29T06:51:24;14.57;;;5.10;;
68108;SDS011;54893;49.864;19.084;2023-01-29T06:56:24;26.73;;;7.60;;
68108;SDS011;54893;49.864;19.084;2023-01-29T07:01:25;25.60;;;7.57;;
68108;SDS011;54893;49.864;19.084;2023-01-29T07:06:26;27.80;;;8.93;;
68108;SDS011;54893;49.864;19.084;2023-01-29T07:11:29;25.00;;;8.40;;
68108;SDS011;54893;49.864;19.084;2023-01-29T07:16:30;20.17;;;6.33;;
68108;SDS011;54893;49.864;19.084;2023-01-29T07:21:30;17.73;;;6.88;;
68108;SDS011;54893;49.864;19.084;2023-01-29T07:26:30;22.35;;;8.98;;
68108;SDS011;54893;49.864;19.084;2023-01-29T07:31:31;34.80;;;13.63;;
68108;SDS011;54893;49.864;19.084;2023-01-29T07:36:31;33.60;;;10.27;;
68108;SDS011;54893;49.864;19.084;2023-01-29T07:41:31;28.13;;;11.50;;
68108;SDS011;54893;49.864;19.084;2023-01-29T07:46:32;32.97;;;11.73;;
68108;SDS011;54893;49.864;19.084;2023-01-29T07:51:32;30.03;;;12.20;;
68108;SDS011;54893;49.864;19.084;2023-01-29T07:56:32;28.63;;;11.30;;
68108;SDS011;54893;49.864;19.084;2023-01-29T08:01:33;30.67;;;13.07;;
68108;SDS011;54893;49.864;19.084;2023-01-29T08:06:33;31.27;;;13.53;;
68108;SDS011;54893;49.864;19.084;2023-01-29T08:11:33;25.20;;;12.60;;
68108;SDS011;54893;49.864;19.084;2023-01-29T08:16:34;29.80;;;12.77;;
68108;SDS011;54893;49.864;19.084;2023-01-29T08:21:34;31.47;;;15.47;;
68108;SDS011;54893;49.864;19.084;2023-01-29T08:26:34;26.48;;;10.02;;
68108;SDS011;54893;49.864;19.084;2023-01-29T08:31:35;25.20;;;9.83;;
68108;SDS011;54893;49.864;19.084;2023-01-29T08:36:36;23.63;;;8.50;;
68108;SDS011;54893;49.864;19.084;2023-01-29T08:41:36;29.97;;;11.50;;
68108;SDS011;54893;49.864;19.084;2023-01-29T08:46:36;27.10;;;11.80;;
68108;SDS011;54893;49.864;19.084;2023-01-29T08:51:39;18.38;;;7.20;;
68108;SDS011;54893;49.864;19.084;2023-01-29T08:56:39;19.75;;;9.50;;
68108;SDS011;54893;49.864;19.084;2023-01-29T09:01:40;16.40;;;8.00;;
68108;SDS011;54893;49.864;19.084;2023-01-29T09:06:40;16.03;;;7.70;;
68108;SDS011;54893;49.864;19.084;2023-01-29T09:11:41;20.07;;;8.00;;
68108;SDS011;54893;49.864;19.084;2023-01-29T09:16:41;18.80;;;6.57;;
68108;SDS011;54893;49.864;19.084;2023-01-29T09:21:42;18.02;;;6.70;;
68108;SDS011;54893;49.864;19.084;2023-01-29T09:26:42;16.57;;;7.40;;
68108;SDS011;54893;49.864;19.084;2023-01-29T09:31:42;18.83;;;8.70;;
68108;SDS011;54893;49.864;19.084;2023-01-29T09:36:43;21.27;;;8.90;;
68108;SDS011;54893;49.864;19.084;2023-01-29T09:46:50;18.70;;;7.70;;
68108;SDS011;54893;49.864;19.084;2023-01-29T09:51:55;19.65;;;7.53;;
68108;SDS011;54893;49.864;19.084;2023-01-29T09:57:01;21.63;;;9.07;;
68108;SDS011;54893;49.864;19.084;2023-01-29T10:13:14;22.15;;;10.38;;
68108;SDS011;54893;49.864;19.084;2023-01-29T10:23:32;22.80;;;10.30;;
68108;SDS011;54893;49.864;19.084;2023-01-29T10:33:48;23.88;;;9.05;;
68108;SDS011;54893;49.864;19.084;2023-01-29T10:38:51;29.58;;;13.90;;
68108;SDS011;54893;49.864;19.084;2023-01-29T10:54:50;19.30;;;7.78;;
68108;SDS011;54893;49.864;19.084;2023-01-29T11:00:01;22.55;;;9.52;;
68108;SDS011;54893;49.864;19.084;2023-01-29T11:05:25;27.60;;;11.57;;
68108;SDS011;54893;49.864;19.084;2023-01-29T11:10:31;24.30;;;8.68;;
68108;SDS011;54893;49.864;19.084;2023-01-29T11:15:36;20.70;;;8.93;;
68108;SDS011;54893;49.864;19.084;2023-01-29T11:20:36;22.53;;;8.37;;
68108;SDS011;54893;49.864;19.084;2023-01-29T11:25:37;27.17;;;13.53;;
68108;SDS011;54893;49.864;19.084;2023-01-29T11:30:38;28.17;;;10.52;;
68108;SDS011;54893;49.864;19.084;2023-01-29T11:35:40;25.93;;;9.80;;
68108;SDS011;54893;49.864;19.084;2023-01-29T11:40:41;26.40;;;8.93;;
68108;SDS011;54893;49.864;19.084;2023-01-29T11:45:42;20.35;;;7.43;;
68108;SDS011;54893;49.864;19.084;2023-01-29T11:50:43;22.27;;;11.02;;
68108;SDS011;54893;49.864;19.084;2023-01-29T11:55:51;17.50;;;7.67;;
68108;SDS011;54893;49.864;19.084;2023-01-29T12:00:52;20.48;;;10.07;;
68108;SDS011;54893;49.864;19.084;2023-01-29T12:05:55;23.48;;;9.65;;
68108;SDS011;54893;49.864;19.084;2023-01-29T12:11:10;24.00;;;9.55;;
68108;SDS011;54893;49.864;19.084;2023-01-29T12:16:18;20.08;;;9.40;;
68108;SDS011;54893;49.864;19.084;2023-01-29T12:32:40;47.25;;;19.88;;
68108;SDS011;54893;49.864;19.084;2023-01-29T12:38:01;35.00;;;21.40;;
68108;SDS011;54893;49.864;19.084;2023-01-29T12:43:17;40.08;;;14.77;;
68108;SDS011;54893;49.864;19.084;2023-01-29T12:48:22;20.10;;;9.40;;
68108;SDS011;54893;49.864;19.084;2023-01-29T12:58:33;20.92;;;9.63;;
68108;SDS011;54893;49.864;19.084;2023-01-29T13:09:08;20.73;;;7.82;;
68108;SDS011;54893;49.864;19.084;2023-01-29T13:14:15;36.73;;;11.23;;
68108;SDS011;54893;49.864;19.084;2023-01-29T13:19:27;19.70;;;10.77;;
68108;SDS011;54893;49.864;19.084;2023-01-29T13:24:35;21.02;;;9.73;;
68108;SDS011;54893;49.864;19.084;2023-01-29T13:29:39;19.77;;;7.68;;
68108;SDS011;54893;49.864;19.084;2023-01-29T13:34:43;21.63;;;10.98;;
68108;SDS011;54893;49.864;19.084;2023-01-29T13:39:46;20.37;;;10.07;;
68108;SDS011;54893;49.864;19.084;2023-01-29T13:44:54;24.67;;;11.55;;
68108;SDS011;54893;49.864;19.084;2023-01-29T13:50:17;23.83;;;10.15;;
68108;SDS011;54893;49.864;19.084;2023-01-29T13:55:27;28.42;;;10.02;;
68108;SDS011;54893;49.864;19.084;2023-01-29T14:05:35;25.80;;;11.33;;
68108;SDS011;54893;49.864;19.084;2023-01-29T14:10:41;23.23;;;10.67;;
68108;SDS011;54893;49.864;19.084;2023-01-29T14:16:31;23.25;;;10.10;;
68108;SDS011;54893;49.864;19.084;2023-01-29T14:21:03;30.87;;;12.23;;
68108;SDS011;54893;49.864;19.084;2023-01-29T14:31:30;28.25;;;11.40;;
68108;SDS011;54893;49.864;19.084;2023-01-29T14:36:43;28.00;;;12.13;;
68108;SDS011;54893;49.864;19.084;2023-01-29T14:41:45;28.50;;;11.32;;
68108;SDS011;54893;49.864;19.084;2023-01-29T14:46:45;32.57;;;13.43;;
68108;SDS011;54893;49.864;19.084;2023-01-29T14:51:46;22.77;;;9.73;;
68108;SDS011;54893;49.864;19.084;2023-01-29T14:56:53;28.48;;;12.20;;
68108;SDS011;54893;49.864;19.084;2023-01-29T15:01:59;24.07;;;10.40;;
68108;SDS011;54893;49.864;19.084;2023-01-29T15:12:17;26.43;;;10.17;;
68108;SDS011;54893;49.864;19.084;2023-01-29T15:17:25;26.10;;;9.18;;
68108;SDS011;54893;49.864;19.084;2023-01-29T15:22:29;31.23;;;12.25;;
68108;SDS011;54893;49.864;19.084;2023-01-29T15:27:32;27.50;;;11.40;;
68108;SDS011;54893;49.864;19.084;2023-01-29T15:37:35;34.33;;;12.17;;
68108;SDS011;54893;49.864;19.084;2023-01-29T15:42:43;31.17;;;12.82;;
68108;SDS011;54893;49.864;19.084;2023-01-29T15:47:47;39.30;;;14.15;;
68108;SDS011;54893;49.864;19.084;2023-01-29T15:52:48;37.67;;;13.38;;
68108;SDS011;54893;49.864;19.084;2023-01-29T15:57:51;32.75;;;12.55;;
68108;SDS011;54893;49.864;19.084;2023-01-29T16:02:53;34.65;;;13.30;;
68108;SDS011;54893;49.864;19.084;2023-01-29T16:07:54;38.90;;;15.30;;
68108;SDS011;54893;49.864;19.084;2023-01-29T16:12:55;43.60;;;17.03;;
68108;SDS011;54893;49.864;19.084;2023-01-29T16:17:57;42.70;;;16.80;;
68108;SDS011;54893;49.864;19.084;2023-01-29T16:23:01;36.40;;;12.43;;
68108;SDS011;54893;49.864;19.084;2023-01-29T16:28:03;35.08;;;13.85;;
68108;SDS011;54893;49.864;19.084;2023-01-29T16:33:06;36.60;;;12.98;;
68108;SDS011;54893;49.864;19.084;2023-01-29T16:38:22;37.43;;;13.53;;
68108;SDS011;54893;49.864;19.084;2023-01-29T16:48:33;37.83;;;13.47;;
68108;SDS011;54893;49.864;19.084;2023-01-29T16:53:34;44.50;;;17.02;;
68108;SDS011;54893;49.864;19.084;2023-01-29T16:58:34;39.53;;;14.93;;
68108;SDS011;54893;49.864;19.084;2023-01-29T17:03:36;34.60;;;12.73;;
68108;SDS011;54893;49.864;19.084;2023-01-29T17:08:40;43.72;;;15.93;;
68108;SDS011;54893;49.864;19.084;2023-01-29T17:13:42;40.25;;;13.48;;
68108;SDS011;54893;49.864;19.084;2023-01-29T17:18:44;50.00;;;16.47;;
68108;SDS011;54893;49.864;19.084;2023-01-29T17:23:45;53.20;;;17.73;;
68108;SDS011;54893;49.864;19.084;2023-01-29T17:28:47;46.85;;;16.50;;
68108;SDS011;54893;49.864;19.084;2023-01-29T17:33:48;51.80;;;18.47;;
68108;SDS011;54893;49.864;19.084;2023-01-29T17:38:49;50.33;;;18.13;;
68108;SDS011;54893;49.864;19.084;2023-01-29T17:43:49;55.13;;;18.20;;
68108;SDS011;54893;49.864;19.084;2023-01-29T17:48:49;68.73;;;24.17;;
68108;SDS011;54893;49.864;19.084;2023-01-29T17:53:51;75.60;;;26.23;;
68108;SDS011;54893;49.864;19.084;2023-01-29T17:58:51;81.53;;;28.27;;
68108;SDS011;54893;49.864;19.084;2023-01-29T18:03:52;77.63;;;27.73;;
68108;SDS011;54893;49.864;19.084;2023-01-29T18:08:52;87.17;;;31.53;;
68108;SDS011;54893;49.864;19.084;2023-01-29T18:13:53;77.70;;;27.67;;
68108;SDS011;54893;49.864;19.084;2023-01-29T18:18:54;80.22;;;28.30;;
68108;SDS011;54893;49.864;19.084;2023-01-29T18:23:55;66.07;;;24.83;;
68108;SDS011;54893;49.864;19.084;2023-01-29T18:28:55;73.93;;;27.67;;
68108;SDS011;54893;49.864;19.084;2023-01-29T18:33:55;90.17;;;34.40;;
68108;SDS011;54893;49.864;19.084;2023-01-29T18:38:56;68.07;;;29.33;;
68108;SDS011;54893;49.864;19.084;2023-01-29T18:43:58;72.27;;;27.07;;
68108;SDS011;54893;49.864;19.084;2023-01-29T18:48:58;75.43;;;25.80;;
68108;SDS011;54893;49.864;19.084;2023-01-29T18:53:59;77.03;;;28.80;;
68108;SDS011;54893;49.864;19.084;2023-01-29T18:59:00;74.60;;;27.53;;
68108;SDS011;54893;49.864;19.084;2023-01-29T19:04:00;76.17;;;26.97;;
68108;SDS011;54893;49.864;19.084;2023-01-29T19:09:00;66.83;;;21.97;;
68108;SDS011;54893;49.864;19.084;2023-01-29T19:14:01;53.17;;;17.57;;
68108;SDS011;54893;49.864;19.084;2023-01-29T19:19:01;67.00;;;21.80;;
68108;SDS011;54893;49.864;19.084;2023-01-29T19:24:01;49.20;;;16.70;;
68108;SDS011;54893;49.864;19.084;2023-01-29T19:29:02;62.27;;;22.80;;
68108;SDS011;54893;49.864;19.084;2023-01-29T19:34:02;69.70;;;28.37;;
68108;SDS011;54893;49.864;19.084;2023-01-29T19:39:03;75.20;;;27.77;;
68108;SDS011;54893;49.864;19.084;2023-01-29T19:44:04;74.65;;;27.13;;
68108;SDS011;54893;49.864;19.084;2023-01-29T19:49:04;59.73;;;22.07;;
68108;SDS011;54893;49.864;19.084;2023-01-29T19:54:05;66.93;;;25.53;;
68108;SDS011;54893;49.864;19.084;2023-01-29T19:59:06;68.97;;;25.10;;
68108;SDS011;54893;49.864;19.084;2023-01-29T20:04:06;67.30;;;22.20;;
68108;SDS011;54893;49.864;19.084;2023-01-29T20:09:06;62.27;;;21.13;;
68108;SDS011;54893;49.864;19.084;2023-01-29T20:14:07;69.63;;;25.73;;
68108;SDS011;54893;49.864;19.084;2023-01-29T20:19:09;77.07;;;30.73;;
68108;SDS011;54893;49.864;19.084;2023-01-29T20:24:10;73.20;;;25.53;;
68108;SDS011;54893;49.864;19.084;2023-01-29T20:29:11;76.05;;;27.52;;
68108;SDS011;54893;49.864;19.084;2023-01-29T20:34:12;78.03;;;30.33;;
68108;SDS011;54893;49.864;19.084;2023-01-29T20:39:12;81.80;;;30.67;;
68108;SDS011;54893;49.864;19.084;2023-01-29T20:44:13;71.32;;;26.25;;
68108;SDS011;54893;49.864;19.084;2023-01-29T20:49:13;77.53;;;28.37;;
68108;SDS011;54893;49.864;19.084;2023-01-29T20:54:16;77.90;;;30.20;;
68108;SDS011;54893;49.864;19.084;2023-01-29T20:59:16;83.93;;;28.43;;
68108;SDS011;54893;49.864;19.084;2023-01-29T21:04:16;85.70;;;30.77;;
68108;SDS011;54893;49.864;19.084;2023-01-29T21:09:17;74.07;;;25.97;;
68108;SDS011;54893;49.864;19.084;2023-01-29T21:14:17;74.93;;;28.03;;
68108;SDS011;54893;49.864;19.084;2023-01-29T21:19:17;88.30;;;31.80;;
68108;SDS011;54893;49.864;19.084;2023-01-29T21:24:18;82.23;;;29.63;;
68108;SDS011;54893;49.864;19.084;2023-01-29T21:29:18;70.57;;;23.57;;
68108;SDS011;54893;49.864;19.084;2023-01-29T21:34:19;63.77;;;23.73;;
68108;SDS011;54893;49.864;19.084;2023-01-29T21:39:19;69.03;;;24.33;;
68108;SDS011;54893;49.864;19.084;2023-01-29T21:44:23;60.43;;;20.33;;
68108;SDS011;54893;49.864;19.084;2023-01-29T21:49:23;57.97;;;19.73;;
68108;SDS011;54893;49.864;19.084;2023-01-29T21:54:23;68.17;;;23.37;;
68108;SDS011;54893;49.864;19.084;2023-01-29T21:59:30;66.93;;;23.08;;
68108;SDS011;54893;49.864;19.084;2023-01-29T22:04:31;63.53;;;20.65;;
68108;SDS011;54893;49.864;19.084;2023-01-29T22:09:31;64.13;;;24.55;;
68108;SDS011;54893;49.864;19.084;2023-01-29T22:14:31;65.78;;;23.15;;
68108;SDS011;54893;49.864;19.084;2023-01-29T22:19:32;70.15;;;27.73;;
68108;SDS011;54893;49.864;19.084;2023-01-29T22:24:33;66.13;;;23.10;;
68108;SDS011;54893;49.864;19.084;2023-01-29T22:29:33;64.37;;;23.17;;
68108;SDS011;54893;49.864;19.084;2023-01-29T22:34:34;66.37;;;22.77;;
68108;SDS011;54893;49.864;19.084;2023-01-29T22:39:34;62.53;;;23.37;;
68108;SDS011;54893;49.864;19.084;2023-01-29T22:44:35;72.53;;;24.60;;
68108;SDS011;54893;49.864;19.084;2023-01-29T22:49:35;65.10;;;23.47;;
68108;SDS011;54893;49.864;19.084;2023-01-29T22:54:39;64.57;;;21.43;;
68108;SDS011;54893;49.864;19.084;2023-01-29T22:59:41;58.63;;;20.23;;
68108;SDS011;54893;49.864;19.084;2023-01-29T23:04:41;52.60;;;19.63;;
68108;SDS011;54893;49.864;19.084;2023-01-29T23:09:41;54.92;;;20.30;;
68108;SDS011;54893;49.864;19.084;2023-01-29T23:14:42;56.50;;;18.83;;
68108;SDS011;54893;49.864;19.084;2023-01-29T23:19:42;64.83;;;22.43;;
68108;SDS011;54893;49.864;19.084;2023-01-29T23:24:42;66.00;;;22.83;;
68108;SDS011;54893;49.864;19.084;2023-01-29T23:29:43;57.97;;;21.03;;
68108;SDS011;54893;49.864;19.084;2023-01-29T23:34:45;72.38;;;26.85;;
68108;SDS011;54893;49.864;19.084;2023-01-29T23:39:45;73.13;;;26.47;;
68108;SDS011;54893;49.864;19.084;2023-01-29T23:44:46;73.03;;;24.93;;
68108;SDS011;54893;49.864;19.084;2023-01-29T23:49:46;76.93;;;28.30;;
68108;SDS011;54893;49.864;19.084;2023-01-29T23:54:46;67.60;;;21.93;;
68108;SDS011;54893;49.864;19.084;2023-01-29T23:59:47;55.55;;;19.33;;
